createdAt,value
2023-04-15T00:00:34.459Z,205.13
2023-04-15T00:01:34.465Z,205.15
2023-04-15T00:02:34.596Z,205.38
2023-04-15T00:03:35.005Z,206.03
2023-04-15T00:04:34.469Z,205.49
2023-04-15T00:05:34.377Z,205.05
2023-04-15T00:06:34.337Z,204.71
2023-04-15T00:07:34.316Z,204.91
2023-04-15T00:08:34.329Z,204.37
2023-04-15T00:09:34.337Z,205.20
2023-04-15T00:10:34.336Z,204.39
2023-04-15T00:11:34.345Z,204.14
2023-04-15T00:12:34.352Z,205.40
2023-04-15T00:13:34.360Z,204.86
2023-04-15T00:14:34.387Z,205.10
2023-04-15T00:15:34.386Z,204.25
2023-04-15T00:16:34.409Z,205.30
2023-04-15T00:17:34.459Z,203.24
2023-04-15T00:18:34.425Z,205.18
2023-04-15T00:19:34.460Z,204.89
2023-04-15T00:20:34.469Z,204.22
2023-04-15T00:21:34.477Z,204.53
2023-04-15T00:22:34.487Z,204.74
2023-04-15T00:23:34.523Z,203.09
2023-04-15T00:24:34.523Z,204.82
2023-04-15T00:25:34.545Z,203.85
2023-04-15T00:26:34.541Z,201.64
2023-04-15T00:27:34.549Z,204.96
2023-04-15T00:28:34.572Z,204.91
2023-04-15T00:29:34.600Z,204.87
2023-04-15T00:30:34.612Z,204.04
2023-04-15T00:31:34.598Z,204.78
2023-04-15T00:32:34.661Z,204.72
2023-04-15T00:33:34.656Z,204.13
2023-04-15T00:34:34.656Z,204.51
2023-04-15T00:35:34.637Z,204.55
2023-04-15T00:36:34.657Z,204.55
2023-04-15T00:37:34.610Z,204.64
2023-04-15T00:38:34.584Z,204.57
2023-04-15T00:39:34.564Z,203.20
2023-04-15T00:40:34.538Z,204.82
2023-04-15T00:41:34.514Z,204.85
2023-04-15T00:42:34.531Z,204.87
2023-04-15T00:43:34.493Z,204.36
2023-04-15T00:44:34.458Z,204.91
2023-04-15T00:45:34.497Z,204.90
2023-04-15T00:46:34.413Z,204.83
2023-04-15T00:47:34.460Z,204.44
2023-04-15T00:48:34.376Z,203.98
2023-04-15T00:49:34.350Z,204.57
2023-04-15T00:50:34.360Z,204.18
2023-04-15T00:51:34.318Z,203.71
2023-04-15T00:52:34.298Z,203.79
2023-04-15T00:53:34.284Z,203.51
2023-04-15T00:54:34.239Z,204.54
2023-04-15T00:55:34.243Z,203.37
2023-04-15T00:56:34.238Z,203.73
2023-04-15T00:57:34.269Z,203.60
2023-04-15T00:58:34.299Z,203.43
2023-04-15T00:59:34.323Z,202.97
2023-04-15T01:00:34.327Z,203.11
2023-04-15T01:01:34.358Z,203.25
2023-04-15T01:02:34.502Z,203.62
2023-04-15T01:03:34.635Z,203.11
2023-04-15T01:04:34.422Z,203.27
2023-04-15T01:05:34.437Z,203.45
2023-04-15T01:06:34.444Z,203.36
2023-04-15T01:07:34.463Z,203.18
2023-04-15T01:08:34.499Z,203.13
2023-04-15T01:09:34.511Z,203.26
2023-04-15T01:10:34.540Z,203.15
2023-04-15T01:11:34.554Z,203.43
2023-04-15T01:12:34.571Z,202.76
2023-04-15T01:13:34.607Z,202.40
2023-04-15T01:14:34.614Z,203.18
2023-04-15T01:15:34.656Z,203.23
2023-04-15T01:16:34.694Z,201.47
2023-04-15T01:17:34.721Z,201.98
2023-04-15T01:18:34.699Z,203.39
2023-04-15T01:19:34.766Z,202.79
2023-04-15T01:20:34.752Z,201.21
2023-04-15T01:21:34.778Z,203.21
2023-04-15T01:22:34.797Z,202.92
2023-04-15T01:23:34.825Z,203.16
2023-04-15T01:24:34.857Z,202.59
2023-04-15T01:25:34.915Z,203.27
2023-04-15T01:26:34.890Z,202.49
2023-04-15T01:27:34.917Z,202.58
2023-04-15T01:28:34.937Z,202.57
2023-04-15T01:29:34.993Z,202.78
2023-04-15T01:30:35.014Z,202.80
2023-04-15T01:31:35.057Z,200.81
2023-04-15T01:32:35.081Z,202.61
2023-04-15T01:33:35.099Z,202.17
2023-04-15T01:34:35.792Z,203.18
2023-04-15T01:35:35.161Z,202.76
2023-04-15T01:36:35.176Z,202.28
2023-04-15T01:37:35.220Z,202.10
2023-04-15T01:38:35.240Z,202.15
2023-04-15T01:39:35.282Z,202.38
2023-04-15T01:40:35.353Z,202.18
2023-04-15T01:41:35.338Z,201.87
2023-04-15T01:42:35.362Z,201.86
2023-04-15T01:43:35.385Z,202.13
2023-04-15T01:44:35.409Z,201.79
2023-04-15T01:45:35.446Z,201.94
2023-04-15T01:46:35.534Z,201.33
2023-04-15T01:47:35.500Z,201.49
2023-04-15T01:48:35.522Z,201.80
2023-04-15T01:49:35.549Z,202.28
2023-04-15T01:50:35.563Z,202.22
2023-04-15T01:51:35.583Z,201.89
2023-04-15T01:52:35.624Z,201.42
2023-04-15T01:53:35.630Z,201.74
2023-04-15T01:54:35.676Z,201.81
2023-04-15T01:55:35.696Z,201.98
2023-04-15T01:56:35.723Z,201.17
2023-04-15T01:57:35.741Z,201.25
2023-04-15T01:58:35.760Z,200.37
2023-04-15T01:59:35.779Z,201.40
2023-04-15T02:00:35.908Z,201.85
2023-04-15T02:01:35.840Z,201.86
2023-04-15T02:02:35.949Z,201.21
2023-04-15T02:03:35.963Z,201.51
2023-04-15T02:04:35.931Z,201.22
2023-04-15T02:05:35.962Z,201.59
2023-04-15T02:06:35.993Z,201.92
2023-04-15T02:07:36.026Z,200.57
2023-04-15T02:08:36.041Z,202.01
2023-04-15T02:09:36.094Z,201.80
2023-04-15T02:10:36.102Z,200.69
2023-04-15T02:11:36.133Z,201.05
2023-04-15T02:12:36.164Z,200.94
2023-04-15T02:13:36.225Z,200.07
2023-04-15T02:14:36.233Z,201.10
2023-04-15T02:15:36.241Z,200.46
2023-04-15T02:16:36.326Z,200.66
2023-04-15T02:17:36.330Z,200.23
2023-04-15T02:18:36.332Z,200.42
2023-04-15T02:19:36.363Z,200.71
2023-04-15T02:20:36.389Z,200.89
2023-04-15T02:21:36.425Z,201.08
2023-04-15T02:22:36.442Z,201.69
2023-04-15T02:23:36.469Z,200.64
2023-04-15T02:24:36.503Z,200.74
2023-04-15T02:25:36.524Z,200.12
2023-04-15T02:26:36.560Z,201.01
2023-04-15T02:27:36.574Z,200.65
2023-04-15T02:28:36.610Z,200.96
2023-04-15T02:29:36.654Z,200.61
2023-04-15T02:30:36.659Z,200.42
2023-04-15T02:31:36.746Z,200.78
2023-04-15T02:32:36.720Z,200.47
2023-04-15T02:33:36.733Z,201.26
2023-04-15T02:34:36.765Z,200.28
2023-04-15T02:35:36.777Z,199.72
2023-04-15T02:36:36.832Z,200.45
2023-04-15T02:37:36.842Z,200.10
2023-04-15T02:38:36.894Z,199.97
2023-04-15T02:39:36.927Z,199.36
2023-04-15T02:40:36.953Z,199.65
2023-04-15T02:41:36.994Z,199.76
2023-04-15T02:42:37.028Z,199.74
2023-04-15T02:43:37.051Z,200.04
2023-04-15T02:44:37.086Z,200.00
2023-04-15T02:45:37.152Z,198.41
2023-04-15T02:46:37.144Z,196.38
2023-04-15T02:47:37.206Z,193.89
2023-04-15T02:48:37.227Z,191.40
2023-04-15T02:49:37.285Z,187.75
2023-04-15T02:50:37.320Z,182.06
2023-04-15T02:51:37.364Z,177.07
2023-04-15T02:52:37.385Z,172.38
2023-04-15T02:53:37.390Z,167.85
2023-04-15T02:54:37.432Z,162.76
2023-04-15T02:55:37.420Z,159.65
2023-04-15T02:56:37.466Z,156.37
2023-04-15T02:57:37.481Z,153.00
2023-04-15T02:58:37.590Z,148.41
2023-04-15T02:59:37.565Z,144.26
2023-04-15T03:00:37.564Z,140.50
2023-04-15T03:01:37.581Z,137.77
2023-04-15T03:02:37.715Z,135.41
2023-04-15T03:03:37.612Z,133.31
2023-04-15T03:04:37.620Z,129.06
2023-04-15T03:05:37.625Z,126.32
2023-04-15T03:06:37.629Z,123.95
2023-04-15T03:07:37.632Z,120.99
2023-04-15T03:08:37.646Z,119.23
2023-04-15T03:09:37.726Z,117.81
2023-04-15T03:10:37.857Z,114.94
2023-04-15T03:11:37.840Z,115.06
2023-04-15T03:12:37.845Z,113.02
2023-04-15T03:13:37.854Z,110.37
2023-04-15T03:14:37.857Z,109.64
2023-04-15T03:15:37.920Z,108.49
2023-04-15T03:16:37.898Z,106.69
2023-04-15T03:17:37.947Z,106.54
2023-04-15T03:18:37.917Z,105.06
2023-04-15T03:19:37.932Z,101.45
2023-04-15T03:20:37.996Z,102.42
2023-04-15T03:21:37.999Z,101.58
2023-04-15T03:22:38.059Z,100.15
2023-04-15T03:23:38.040Z,99.21
2023-04-15T03:24:38.072Z,98.05
2023-04-15T03:25:38.103Z,97.15
2023-04-15T03:26:38.130Z,96.07
2023-04-15T03:27:38.152Z,97.35
2023-04-15T03:28:38.178Z,96.95
2023-04-15T03:29:38.211Z,96.62
2023-04-15T03:30:38.241Z,94.85
2023-04-15T03:31:38.336Z,93.78
2023-04-15T03:32:38.428Z,92.59
2023-04-15T03:33:38.317Z,90.49
2023-04-15T03:34:38.364Z,89.96
2023-04-15T03:35:38.377Z,89.16
2023-04-15T03:36:38.428Z,88.98
2023-04-15T03:37:38.448Z,87.75
2023-04-15T03:38:38.481Z,86.88
2023-04-15T03:39:38.474Z,86.94
2023-04-15T03:40:38.477Z,86.97
2023-04-15T03:41:38.476Z,87.32
2023-04-15T03:42:38.469Z,87.74
2023-04-15T03:43:38.452Z,87.30
2023-04-15T03:44:38.456Z,85.71
2023-04-15T03:45:38.437Z,84.61
2023-04-15T03:46:38.472Z,84.68
2023-04-15T03:47:38.472Z,85.52
2023-04-15T03:48:38.403Z,84.21
2023-04-15T03:49:38.400Z,83.22
2023-04-15T03:50:38.402Z,83.47
2023-04-15T03:51:38.386Z,83.35
2023-04-15T03:52:38.440Z,82.66
2023-04-15T03:53:38.465Z,81.46
2023-04-15T03:54:38.555Z,82.27
2023-04-15T03:55:38.573Z,81.82
2023-04-15T03:56:38.597Z,80.91
2023-04-15T03:57:38.634Z,79.98
2023-04-15T03:58:38.688Z,79.18
2023-04-15T03:59:38.715Z,80.27
2023-04-15T04:00:38.770Z,78.59
2023-04-15T04:01:38.844Z,76.23
2023-04-15T04:02:39.117Z,78.12
2023-04-15T04:03:38.985Z,78.08
2023-04-15T04:04:38.944Z,77.31
2023-04-15T04:05:39.066Z,76.82
2023-04-15T04:06:39.012Z,75.84
2023-04-15T04:07:39.058Z,77.25
2023-04-15T04:08:39.106Z,76.07
2023-04-15T04:09:39.157Z,74.36
2023-04-15T04:10:39.202Z,73.08
2023-04-15T04:11:39.224Z,73.64
2023-04-15T04:12:39.258Z,73.81
2023-04-15T04:13:39.317Z,72.17
2023-04-15T04:14:39.355Z,70.20
2023-04-15T04:15:39.496Z,71.33
2023-04-15T04:16:39.466Z,70.99
2023-04-15T04:17:39.519Z,71.39
2023-04-15T04:18:39.549Z,71.77
2023-04-15T04:19:39.577Z,70.05
2023-04-15T04:20:39.637Z,70.81
2023-04-15T04:21:39.697Z,70.98
2023-04-15T04:22:39.737Z,69.39
2023-04-15T04:23:39.784Z,69.81
2023-04-15T04:24:39.838Z,70.57
2023-04-15T04:25:39.895Z,70.94
2023-04-15T04:26:39.932Z,69.72
2023-04-15T04:27:40.032Z,67.34
2023-04-15T04:28:40.045Z,67.93
2023-04-15T04:29:40.085Z,66.75
2023-04-15T04:30:40.123Z,65.02
2023-04-15T04:31:40.226Z,63.97
2023-04-15T04:32:40.269Z,63.63
2023-04-15T04:33:40.273Z,63.39
2023-04-15T04:34:40.347Z,62.56
2023-04-15T04:35:40.388Z,61.06
2023-04-15T04:36:40.444Z,60.21
2023-04-15T04:37:40.503Z,61.84
2023-04-15T04:38:40.548Z,60.36
2023-04-15T04:39:40.628Z,60.47
2023-04-15T04:40:40.684Z,59.92
2023-04-15T04:41:40.738Z,59.29
2023-04-15T04:42:40.798Z,59.17
2023-04-15T04:43:40.844Z,59.13
2023-04-15T04:44:40.890Z,58.92
2023-04-15T04:45:40.983Z,58.10
2023-04-15T04:46:40.997Z,57.91
2023-04-15T04:47:41.083Z,58.09
2023-04-15T04:48:41.108Z,57.87
2023-04-15T04:49:41.201Z,57.38
2023-04-15T04:50:41.237Z,57.68
2023-04-15T04:51:41.270Z,57.32
2023-04-15T04:52:41.327Z,57.71
2023-04-15T04:53:41.389Z,55.97
2023-04-15T04:54:41.460Z,58.04
2023-04-15T04:55:41.512Z,56.90
2023-04-15T04:56:41.574Z,56.18
2023-04-15T04:57:41.622Z,55.75
2023-04-15T04:58:41.677Z,55.66
2023-04-15T04:59:41.706Z,56.81
2023-04-15T05:00:41.732Z,54.12
2023-04-15T05:01:41.804Z,54.16
2023-04-15T05:02:41.842Z,54.22
2023-04-15T05:03:41.842Z,54.24
2023-04-15T05:04:41.707Z,54.62
2023-04-15T05:05:41.679Z,53.01
2023-04-15T05:06:41.683Z,53.14
2023-04-15T05:07:41.668Z,53.13
2023-04-15T05:08:41.650Z,50.43
2023-04-15T05:09:41.716Z,52.52
2023-04-15T05:10:41.798Z,50.89
2023-04-15T05:11:41.852Z,50.59
2023-04-15T05:12:41.835Z,49.62
2023-04-15T05:13:41.835Z,49.04
2023-04-15T05:14:41.834Z,49.19
2023-04-15T05:15:41.851Z,50.24
2023-04-15T05:16:41.820Z,49.47
2023-04-15T05:17:41.841Z,49.42
2023-04-15T05:18:41.799Z,51.25
2023-04-15T05:19:41.798Z,50.42
2023-04-15T05:20:41.820Z,51.68
2023-04-15T05:21:41.847Z,52.18
2023-04-15T05:22:41.905Z,54.08
2023-04-15T05:23:41.971Z,52.66
2023-04-15T05:24:42.040Z,53.13
2023-04-15T05:25:42.100Z,53.17
2023-04-15T05:26:42.970Z,53.70
2023-04-15T05:27:42.232Z,54.22
2023-04-15T05:28:42.274Z,53.09
2023-04-15T05:29:42.317Z,54.99
2023-04-15T05:30:42.396Z,56.33
2023-04-15T05:31:42.554Z,55.42
2023-04-15T05:32:42.540Z,55.41
2023-04-15T05:33:42.554Z,56.02
2023-04-15T05:34:42.592Z,56.48
2023-04-15T05:35:42.648Z,56.44
2023-04-15T05:36:42.710Z,58.15
2023-04-15T05:37:42.766Z,57.77
2023-04-15T05:38:42.826Z,56.14
2023-04-15T05:39:42.872Z,57.88
2023-04-15T05:40:42.930Z,56.05
2023-04-15T05:41:42.992Z,57.57
2023-04-15T05:42:43.052Z,56.68
2023-04-15T05:43:43.084Z,56.92
2023-04-15T05:44:43.152Z,56.37
2023-04-15T05:45:43.197Z,57.37
2023-04-15T05:46:43.329Z,56.98
2023-04-15T05:47:43.350Z,56.60
2023-04-15T05:48:43.381Z,54.24
2023-04-15T05:49:43.399Z,54.98
2023-04-15T05:50:43.426Z,53.65
2023-04-15T05:51:43.467Z,51.56
2023-04-15T05:52:43.508Z,51.19
2023-04-15T05:53:43.551Z,50.94
2023-04-15T05:54:43.613Z,48.76
2023-04-15T05:55:43.680Z,48.32
2023-04-15T05:56:43.725Z,46.84
2023-04-15T05:57:43.770Z,48.16
2023-04-15T05:58:43.812Z,47.20
2023-04-15T05:59:43.829Z,45.39
2023-04-15T06:00:43.866Z,45.04
2023-04-15T06:01:43.919Z,43.57
2023-04-15T06:02:44.094Z,41.58
2023-04-15T06:03:44.115Z,42.00
2023-04-15T06:04:44.065Z,37.60
2023-04-15T06:05:44.072Z,37.46
2023-04-15T06:06:44.128Z,37.75
2023-04-15T06:07:44.728Z,36.46
2023-04-15T06:08:44.203Z,37.18
2023-04-15T06:09:44.243Z,35.68
2023-04-15T06:10:44.292Z,35.50
2023-04-15T06:11:44.336Z,35.85
2023-04-15T06:12:44.361Z,36.37
2023-04-15T06:13:44.387Z,36.95
2023-04-15T06:14:44.445Z,35.56
2023-04-15T06:15:44.500Z,36.39
2023-04-15T06:16:44.567Z,37.90
2023-04-15T06:17:44.652Z,33.17
2023-04-15T06:18:44.664Z,34.87
2023-04-15T06:19:44.730Z,34.08
2023-04-15T06:20:44.768Z,34.20
2023-04-15T06:21:44.832Z,33.44
2023-04-15T06:22:44.886Z,34.44
2023-04-15T06:23:44.945Z,33.31
2023-04-15T06:24:45.024Z,33.12
2023-04-15T06:25:45.069Z,34.73
2023-04-15T06:26:45.137Z,34.28
2023-04-15T06:27:45.186Z,34.23
2023-04-15T06:28:45.250Z,32.84
2023-04-15T06:29:45.301Z,33.62
2023-04-15T06:30:45.405Z,33.01
2023-04-15T06:31:45.532Z,32.87
2023-04-15T06:32:45.509Z,34.64
2023-04-15T06:33:45.569Z,31.82
2023-04-15T06:34:45.626Z,30.54
2023-04-15T06:35:45.657Z,30.00
2023-04-15T06:36:45.698Z,28.44
2023-04-15T06:37:45.742Z,26.52
2023-04-15T06:38:45.758Z,25.46
2023-04-15T06:39:45.779Z,24.98
2023-04-15T06:40:45.841Z,25.00
2023-04-15T06:41:45.899Z,26.36
2023-04-15T06:42:45.942Z,25.63
2023-04-15T06:43:46.000Z,25.68
2023-04-15T06:44:46.057Z,25.00
2023-04-15T06:45:46.165Z,25.00
2023-04-15T06:46:46.174Z,27.36
2023-04-15T06:47:46.346Z,25.39
2023-04-15T06:48:46.296Z,25.81
2023-04-15T06:49:46.366Z,25.00
2023-04-15T06:50:46.384Z,25.37
2023-04-15T06:51:46.457Z,26.27
2023-04-15T06:52:46.502Z,25.00
2023-04-15T06:53:46.572Z,25.07
2023-04-15T06:54:46.633Z,26.28
2023-04-15T06:55:46.690Z,25.02
2023-04-15T06:56:46.725Z,24.93
2023-04-15T06:57:46.763Z,25.00
2023-04-15T06:58:46.823Z,25.70
2023-04-15T06:59:46.903Z,24.69
2023-04-15T07:00:46.940Z,25.52
2023-04-15T07:01:46.971Z,24.45
2023-04-15T07:02:47.048Z,25.04
2023-04-15T07:03:47.052Z,24.71
2023-04-15T07:04:47.043Z,25.00
2023-04-15T07:05:47.058Z,24.45
2023-04-15T07:06:47.076Z,25.00
2023-04-15T07:07:47.098Z,25.97
2023-04-15T07:08:47.139Z,26.69
2023-04-15T07:09:47.177Z,27.69
2023-04-15T07:10:47.194Z,26.23
2023-04-15T07:11:47.226Z,25.91
2023-04-15T07:12:47.241Z,25.80
2023-04-15T07:13:47.253Z,25.37
2023-04-15T07:14:47.289Z,25.79
2023-04-15T07:15:47.296Z,26.21
2023-04-15T07:16:47.420Z,25.00
2023-04-15T07:17:47.413Z,27.25
2023-04-15T07:18:47.441Z,25.40
2023-04-15T07:19:47.485Z,25.06
2023-04-15T07:20:47.534Z,25.00
2023-04-15T07:21:47.578Z,25.04
2023-04-15T07:22:47.610Z,25.69
2023-04-15T07:23:47.667Z,25.00
2023-04-15T07:24:47.719Z,25.74
2023-04-15T07:25:47.810Z,25.67
2023-04-15T07:26:47.843Z,25.11
2023-04-15T07:27:47.906Z,25.40
2023-04-15T07:28:47.919Z,25.00
2023-04-15T07:29:47.984Z,25.41
2023-04-15T07:30:48.121Z,27.43
2023-04-15T07:31:48.110Z,25.78
2023-04-15T07:32:48.239Z,25.47
2023-04-15T07:33:48.183Z,26.72
2023-04-15T07:34:48.227Z,25.33
2023-04-15T07:35:48.277Z,25.57
2023-04-15T07:36:48.342Z,25.16
2023-04-15T07:37:48.393Z,25.41
2023-04-15T07:38:48.429Z,25.80
2023-04-15T07:39:48.485Z,25.45
2023-04-15T07:40:48.535Z,25.17
2023-04-15T07:41:48.585Z,25.77
2023-04-15T07:42:48.627Z,25.26
2023-04-15T07:43:48.677Z,25.12
2023-04-15T07:44:48.713Z,25.57
2023-04-15T07:45:48.828Z,27.62
2023-04-15T07:46:48.825Z,26.28
2023-04-15T07:47:48.911Z,26.34
2023-04-15T07:48:48.913Z,27.46
2023-04-15T07:49:48.974Z,26.97
2023-04-15T07:50:49.035Z,26.84
2023-04-15T07:51:49.103Z,25.98
2023-04-15T07:52:49.110Z,25.00
2023-04-15T07:53:49.146Z,25.77
2023-04-15T07:54:49.200Z,25.77
2023-04-15T07:55:49.229Z,25.56
2023-04-15T07:56:49.293Z,26.25
2023-04-15T07:57:49.338Z,26.32
2023-04-15T07:58:49.363Z,25.00
2023-04-15T07:59:49.418Z,25.90
2023-04-15T08:00:49.461Z,25.74
2023-04-15T08:01:49.561Z,26.08
2023-04-15T08:02:49.632Z,25.19
2023-04-15T08:03:49.739Z,25.60
2023-04-15T08:04:49.715Z,25.24
2023-04-15T08:05:49.665Z,25.10
2023-04-15T08:06:49.703Z,25.05
2023-04-15T08:07:49.704Z,24.86
2023-04-15T08:08:49.710Z,25.19
2023-04-15T08:09:49.662Z,24.57
2023-04-15T08:10:51.355Z,23.29
2023-04-15T08:11:49.634Z,21.09
2023-04-15T08:12:49.659Z,25.00
2023-04-15T08:13:49.615Z,26.47
2023-04-15T08:14:49.611Z,25.91
2023-04-15T08:15:49.633Z,26.45
2023-04-15T08:16:49.577Z,25.00
2023-04-15T08:17:49.615Z,25.64
2023-04-15T08:18:49.574Z,25.00
2023-04-15T08:19:49.546Z,25.37
2023-04-15T08:20:49.546Z,25.05
2023-04-15T08:21:49.527Z,26.13
2023-04-15T08:22:49.561Z,26.00
2023-04-15T08:23:49.503Z,26.83
2023-04-15T08:24:49.483Z,27.15
2023-04-15T08:25:49.488Z,25.57
2023-04-15T08:26:49.484Z,25.60
2023-04-15T08:27:49.465Z,24.66
2023-04-15T08:28:49.430Z,23.93
2023-04-15T08:29:49.434Z,24.91
2023-04-15T08:30:49.410Z,23.84
2023-04-15T08:31:49.461Z,26.70
2023-04-15T08:32:49.460Z,26.73
2023-04-15T08:33:49.372Z,26.74
2023-04-15T08:34:49.341Z,26.52
2023-04-15T08:35:49.339Z,26.35
2023-04-15T08:36:49.314Z,25.67
2023-04-15T08:37:49.384Z,26.44
2023-04-15T08:38:49.393Z,25.72
2023-04-15T08:39:49.413Z,26.84
2023-04-15T08:40:49.441Z,25.15
2023-04-15T08:41:49.492Z,25.05
2023-04-15T08:42:49.528Z,25.70
2023-04-15T08:43:49.525Z,26.25
2023-04-15T08:44:49.562Z,26.38
2023-04-15T08:45:49.608Z,26.67
2023-04-15T08:46:49.789Z,28.40
2023-04-15T08:47:49.671Z,28.57
2023-04-15T08:48:49.613Z,29.86
2023-04-15T08:49:49.569Z,34.14
2023-04-15T08:50:49.544Z,43.02
2023-04-15T08:51:49.549Z,55.66
2023-04-15T08:52:49.526Z,62.14
2023-04-15T08:53:49.492Z,67.43
2023-04-15T08:54:49.469Z,71.75
2023-04-15T08:55:49.466Z,75.57
2023-04-15T08:56:49.483Z,79.02
2023-04-15T08:57:49.453Z,83.02
2023-04-15T08:58:49.428Z,86.36
2023-04-15T08:59:49.414Z,89.57
2023-04-15T09:00:49.459Z,93.46
2023-04-15T09:03:08.908Z,25.00
2023-04-15T09:04:08.770Z,25.00
2023-04-15T09:05:08.702Z,25.00
2023-04-15T09:06:08.679Z,25.00
2023-04-15T09:07:08.680Z,25.00
2023-04-15T09:08:08.670Z,34.72
2023-04-15T09:09:08.597Z,46.27
2023-04-15T09:10:08.574Z,53.82
2023-04-15T09:11:08.563Z,66.57
2023-04-15T09:12:08.550Z,75.28
2023-04-15T09:13:08.533Z,83.23
2023-04-15T09:14:08.498Z,93.40
2023-04-15T09:15:08.467Z,100.02
2023-04-15T09:16:08.594Z,110.31
2023-04-15T09:17:08.421Z,119.14
2023-04-15T09:18:08.401Z,124.77
2023-04-15T09:19:08.402Z,134.50
2023-04-15T09:20:08.352Z,144.58
2023-04-15T09:21:08.314Z,152.80
2023-04-15T09:22:08.313Z,156.22
2023-04-15T09:23:08.276Z,164.42
2023-04-15T09:24:08.253Z,175.28
2023-04-15T09:25:08.227Z,178.02
2023-04-15T09:26:08.199Z,188.02
2023-04-15T09:27:08.169Z,184.43
2023-04-15T09:28:08.160Z,191.74
2023-04-15T09:29:08.132Z,198.83
2023-04-15T09:30:08.072Z,209.69
2023-04-15T09:31:08.050Z,217.03
2023-04-15T09:32:08.001Z,221.28
2023-04-15T09:33:08.077Z,225.20
2023-04-15T09:34:07.942Z,228.36
2023-04-15T09:35:07.913Z,232.90
2023-04-15T09:36:07.892Z,242.24
2023-04-15T09:37:08.056Z,243.02
2023-04-15T09:38:07.863Z,243.10
2023-04-15T09:39:07.800Z,247.95
2023-04-15T09:40:07.772Z,248.53
2023-04-15T09:41:07.749Z,238.35
2023-04-15T09:42:07.726Z,244.61
2023-04-15T09:43:07.734Z,247.28
2023-04-15T09:44:07.664Z,245.72
2023-04-15T09:45:07.647Z,247.46
2023-04-15T09:46:07.710Z,248.18
2023-04-15T09:47:07.569Z,250.00
2023-04-15T09:48:07.608Z,245.69
2023-04-15T09:49:07.518Z,246.87
2023-04-15T09:50:07.482Z,246.99
2023-04-15T09:51:07.438Z,244.20
2023-04-15T09:52:07.398Z,245.65
2023-04-15T09:53:07.376Z,248.81
2023-04-15T09:54:07.361Z,247.20
2023-04-15T09:55:07.303Z,250.00
2023-04-15T09:56:07.261Z,248.86
2023-04-15T09:57:07.304Z,249.61
2023-04-15T09:58:07.213Z,247.57
2023-04-15T09:59:07.192Z,247.76
2023-04-15T10:00:07.151Z,250.00
2023-04-15T10:01:07.187Z,246.35
2023-04-15T10:02:07.439Z,249.88
2023-04-15T10:03:07.336Z,248.15
2023-04-15T10:04:07.559Z,247.06
2023-04-15T10:05:07.165Z,247.19
2023-04-15T10:06:07.124Z,247.70
2023-04-15T10:07:07.077Z,248.19
2023-04-15T10:08:07.048Z,251.99
2023-04-15T10:09:07.010Z,254.51
2023-04-15T10:10:07.048Z,249.91
2023-04-15T10:11:06.935Z,248.34
2023-04-15T10:12:06.922Z,250.00
2023-04-15T10:13:06.862Z,248.76
2023-04-15T10:14:06.817Z,247.04
2023-04-15T10:15:06.769Z,248.79
2023-04-15T10:16:06.753Z,249.44
2023-04-15T10:17:06.681Z,246.67
2023-04-15T10:18:06.689Z,248.91
2023-04-15T10:19:06.644Z,247.78
2023-04-15T10:20:06.607Z,247.98
2023-04-15T10:21:06.602Z,248.79
2023-04-15T10:22:06.585Z,249.44
2023-04-15T10:23:09.023Z,249.42
2023-04-15T10:24:06.553Z,249.14
2023-04-15T10:25:06.498Z,250.00
2023-04-15T10:26:06.473Z,248.38
2023-04-15T10:27:06.438Z,249.70
2023-04-15T10:28:06.388Z,248.24
2023-04-15T10:29:06.347Z,250.00
2023-04-15T10:30:06.349Z,246.91
2023-04-15T10:31:06.322Z,249.54
2023-04-15T10:32:06.255Z,247.67
2023-04-15T10:33:06.203Z,248.85
2023-04-15T10:34:06.178Z,248.92
2023-04-15T10:35:06.140Z,250.00
2023-04-15T10:36:06.100Z,249.10
2023-04-15T10:37:06.062Z,249.19
2023-04-15T10:38:06.038Z,245.76
2023-04-15T10:39:06.015Z,250.00
2023-04-15T10:40:05.977Z,247.42
2023-04-15T10:41:05.986Z,248.65
2023-04-15T10:42:05.913Z,246.05
2023-04-15T10:43:05.887Z,247.67
2023-04-15T10:44:05.975Z,247.44
2023-04-15T10:45:05.804Z,248.13
2023-04-15T10:46:05.797Z,249.00
2023-04-15T10:47:05.743Z,248.74
2023-04-15T10:48:05.780Z,247.39
2023-04-15T10:49:05.707Z,248.72
2023-04-15T10:50:05.621Z,249.61
2023-04-15T10:51:05.610Z,249.06
2023-04-15T10:52:05.561Z,248.68
2023-04-15T10:53:05.530Z,248.75
2023-04-15T10:54:05.682Z,248.98
2023-04-15T10:55:05.477Z,246.16
2023-04-15T10:56:05.399Z,247.39
2023-04-15T10:57:05.401Z,249.40
2023-04-15T10:58:05.336Z,248.76
2023-04-15T10:59:05.318Z,249.15
2023-04-15T11:00:05.266Z,248.61
2023-04-15T11:01:05.220Z,250.00
2023-04-15T11:02:05.252Z,249.09
2023-04-15T11:03:05.333Z,249.12
2023-04-15T11:04:05.247Z,249.27
2023-04-15T11:05:05.095Z,249.19
2023-04-15T11:06:05.061Z,250.01
2023-04-15T11:07:05.002Z,250.93
2023-04-15T11:08:04.969Z,252.13
2023-04-15T11:09:04.929Z,248.81
2023-04-15T11:10:04.941Z,247.92
2023-04-15T11:11:04.843Z,249.67
2023-04-15T11:12:04.828Z,248.35
2023-04-15T11:13:04.811Z,247.92
2023-04-15T11:14:04.905Z,248.67
2023-04-15T11:15:04.740Z,248.16
2023-04-15T11:16:04.727Z,247.35
2023-04-15T11:17:04.637Z,248.45
2023-04-15T11:18:04.668Z,249.77
2023-04-15T11:19:04.577Z,248.38
2023-04-15T11:20:04.552Z,248.10
2023-04-15T11:21:04.501Z,248.26
2023-04-15T11:22:04.463Z,246.61
2023-04-15T11:23:13.832Z,248.85
2023-04-15T11:24:05.747Z,248.93
2023-04-15T11:25:04.352Z,249.12
2023-04-15T11:26:04.293Z,248.68
2023-04-15T11:27:04.260Z,249.67
2023-04-15T11:28:04.220Z,251.91
2023-04-15T11:29:04.376Z,249.18
2023-04-15T11:30:04.170Z,249.41
2023-04-15T11:31:04.090Z,247.22
2023-04-15T11:32:04.107Z,247.64
2023-04-15T11:33:04.081Z,246.24
2023-04-15T11:34:04.080Z,246.37
2023-04-15T11:35:03.935Z,249.14
2023-04-15T11:36:03.889Z,249.50
2023-04-15T11:37:03.854Z,245.90
2023-04-15T11:38:03.827Z,247.70
2023-04-15T11:39:03.771Z,246.38
2023-04-15T11:40:03.757Z,248.63
2023-04-15T11:41:03.685Z,245.98
2023-04-15T11:42:03.639Z,248.91
2023-04-15T11:43:03.579Z,247.99
2023-04-15T11:44:03.829Z,249.71
2023-04-15T11:45:03.521Z,249.08
2023-04-15T11:46:03.492Z,248.92
2023-04-15T11:47:03.431Z,247.73
2023-04-15T11:48:03.392Z,249.59
2023-04-15T11:49:03.358Z,248.25
2023-04-15T11:50:03.324Z,247.69
2023-04-15T11:51:03.350Z,249.30
2023-04-15T11:52:03.293Z,248.61
2023-04-15T11:53:03.305Z,249.58
2023-04-15T11:54:03.610Z,246.96
2023-04-15T11:55:03.247Z,247.83
2023-04-15T11:56:03.231Z,247.29
2023-04-15T11:57:03.231Z,246.16
2023-04-15T11:58:03.196Z,248.67
2023-04-15T11:59:03.205Z,247.87
2023-04-15T12:00:03.179Z,248.75
2023-04-15T12:01:03.172Z,247.11
2023-04-15T12:02:03.219Z,247.67
2023-04-15T12:03:03.266Z,247.79
2023-04-15T12:04:03.456Z,248.96
2023-04-15T12:05:03.224Z,249.24
2023-04-15T12:06:03.075Z,247.77
2023-04-15T12:07:03.103Z,247.38
2023-04-15T12:08:03.039Z,249.31
2023-04-15T12:09:03.034Z,247.47
2023-04-15T12:10:03.005Z,245.96
2023-04-15T12:11:02.976Z,247.01
2023-04-15T12:12:02.947Z,248.19
2023-04-15T12:13:02.952Z,246.75
2023-04-15T12:14:03.200Z,247.74
2023-04-15T12:15:02.907Z,247.62
2023-04-15T12:16:02.918Z,248.14
2023-04-15T12:17:02.810Z,247.23
2023-04-15T12:18:02.836Z,247.98
2023-04-15T12:19:02.777Z,248.51
2023-04-15T12:20:02.730Z,247.61
2023-04-15T12:21:02.691Z,249.05
2023-04-15T12:22:02.645Z,248.13
2023-04-15T12:23:02.606Z,246.93
2023-04-15T12:24:02.773Z,246.51
2023-04-15T12:25:02.521Z,246.69
2023-04-15T12:26:02.453Z,247.21
2023-04-15T12:27:02.427Z,248.01
2023-04-15T12:28:02.388Z,248.11
2023-04-15T12:29:02.340Z,250.83
2023-04-15T12:30:02.328Z,249.30
2023-04-15T12:31:02.312Z,248.61
2023-04-15T12:32:02.262Z,246.61
2023-04-15T12:33:02.381Z,245.59
2023-04-15T12:34:02.430Z,246.56
2023-04-15T12:35:02.157Z,247.49
2023-04-15T12:36:02.100Z,247.40
2023-04-15T12:37:02.080Z,248.65
2023-04-15T12:38:02.013Z,247.87
2023-04-15T12:39:01.969Z,247.44
2023-04-15T12:40:01.950Z,248.20
2023-04-15T12:41:01.907Z,247.43